ENT4211 EPWA-DTTJ
Flight info
| Callsign | ENT4211 |
|---|---|
| Flight time | 2h 51m |
| Altitude | 38000 |
| Route | EVINA M66 BABKO DCT MOCON DCT VEBAL DCT VELUG/N0445F390 DCT SENTI/N0440F380 DCT RALAK G362 TRIFA |
| Aircraft | B38M/M-SDE1FGHILORVWXY/HB1 |
Departure
| Time | 2026-04-30 10:44 |
|---|---|
| Airport | Warsaw Chopin Airport (EPWA) |
Arrival
| Time | 2026-04-30 13:36 |
|---|---|
| Airport | Djerba Zarzis International Airport (DTTJ) |
| Time | Latitude | Longitude | Altitude | Speed | Heading |
|---|---|---|---|---|---|
| 2026-04-30 10:35 | 52.17198 | 20.96678 | 336 ft | 0 kts | 207° |
| 2026-04-30 10:41 | 52.17184 | 20.96662 | 360 ft | 6 kts | 221° |
| 2026-04-30 10:42 | 52.17110 | 20.96643 | 341 ft | 17 kts | 150° |
| 2026-04-30 10:42 | 52.16966 | 20.96769 | 341 ft | 30 kts | 152° |
| 2026-04-30 10:42 | 52.16753 | 20.96952 | 341 ft | 37 kts | 152° |
| 2026-04-30 10:42 | 52.16618 | 20.97216 | 340 ft | 31 kts | 115° |
| 2026-04-30 10:43 | 52.16527 | 20.97540 | 338 ft | 32 kts | 114° |
| 2026-04-30 10:43 | 52.16444 | 20.97801 | 340 ft | 13 kts | 152° |
| 2026-04-30 10:43 | 52.16380 | 20.97774 | 341 ft | 11 kts | 204° |
| 2026-04-30 10:43 | 52.16312 | 20.97710 | 337 ft | 10 kts | 239° |
| 2026-04-30 10:44 | 52.16342 | 20.97543 | 338 ft | 42 kts | 295° |
| 2026-04-30 10:44 | 52.16579 | 20.96699 | 347 ft | 118 kts | 295° |
| 2026-04-30 10:44 | 52.16991 | 20.95208 | 513 ft | 165 kts | 293° |
| 2026-04-30 10:44 | 52.17460 | 20.93393 | 1467 ft | 174 kts | 297° |
| 2026-04-30 10:45 | 52.17976 | 20.91568 | 2408 ft | 183 kts | 296° |
| 2026-04-30 10:45 | 52.18292 | 20.89499 | 3313 ft | 190 kts | 277° |
| 2026-04-30 10:45 | 52.18150 | 20.87347 | 4319 ft | 195 kts | 261° |
| 2026-04-30 10:45 | 52.17824 | 20.85132 | 5106 ft | 210 kts | 259° |
| 2026-04-30 10:46 | 52.17460 | 20.82713 | 5795 ft | 230 kts | 259° |
| 2026-04-30 10:46 | 52.17064 | 20.80080 | 6490 ft | 249 kts | 259° |
| 2026-04-30 10:46 | 52.16636 | 20.77241 | 7244 ft | 266 kts | 259° |
| 2026-04-30 10:46 | 52.16184 | 20.74249 | 7970 ft | 282 kts | 259° |
| 2026-04-30 10:47 | 52.15405 | 20.71313 | 9066 ft | 287 kts | 233° |
| 2026-04-30 10:47 | 52.13836 | 20.69267 | 10064 ft | 297 kts | 207° |
| 2026-04-30 10:47 | 52.11829 | 20.68273 | 10843 ft | 308 kts | 190° |
| 2026-04-30 10:47 | 52.09703 | 20.67396 | 11467 ft | 323 kts | 197° |
| 2026-04-30 10:48 | 52.07485 | 20.66318 | 12048 ft | 339 kts | 197° |
| 2026-04-30 10:48 | 52.05180 | 20.65233 | 12768 ft | 348 kts | 196° |
| 2026-04-30 10:48 | 52.02840 | 20.64158 | 13716 ft | 351 kts | 196° |
| 2026-04-30 10:48 | 52.00494 | 20.63097 | 14468 ft | 357 kts | 196° |
| 2026-04-30 10:49 | 51.98089 | 20.62020 | 15264 ft | 360 kts | 195° |
| 2026-04-30 10:49 | 51.95651 | 20.60933 | 15993 ft | 365 kts | 196° |
| 2026-04-30 10:49 | 51.93190 | 20.59838 | 16734 ft | 369 kts | 195° |
| 2026-04-30 10:49 | 51.90695 | 20.58730 | 17443 ft | 373 kts | 195° |
| 2026-04-30 10:50 | 51.88171 | 20.57611 | 18156 ft | 377 kts | 196° |
| 2026-04-30 10:50 | 51.85622 | 20.56483 | 18843 ft | 381 kts | 196° |
| 2026-04-30 10:50 | 51.83084 | 20.55361 | 19402 ft | 385 kts | 196° |
| 2026-04-30 10:50 | 51.80489 | 20.54216 | 19984 ft | 388 kts | 196° |
| 2026-04-30 10:51 | 51.77871 | 20.53061 | 20570 ft | 391 kts | 196° |
| 2026-04-30 10:51 | 51.75229 | 20.51897 | 21138 ft | 394 kts | 196° |
| 2026-04-30 10:51 | 51.72571 | 20.50729 | 21692 ft | 398 kts | 196° |
| 2026-04-30 10:51 | 51.69882 | 20.49548 | 22242 ft | 401 kts | 196° |
| 2026-04-30 10:52 | 51.67175 | 20.48360 | 22811 ft | 404 kts | 196° |
| 2026-04-30 10:52 | 51.64481 | 20.47180 | 23344 ft | 408 kts | 196° |
| 2026-04-30 10:52 | 51.61731 | 20.45977 | 23916 ft | 410 kts | 196° |
| 2026-04-30 10:52 | 51.58953 | 20.44763 | 24361 ft | 414 kts | 197° |
| 2026-04-30 10:53 | 51.56162 | 20.43545 | 24806 ft | 417 kts | 197° |
| 2026-04-30 10:53 | 51.53352 | 20.42321 | 25265 ft | 420 kts | 197° |
| 2026-04-30 10:53 | 51.50517 | 20.41088 | 25706 ft | 423 kts | 197° |
| 2026-04-30 10:53 | 51.47659 | 20.39846 | 26126 ft | 427 kts | 197° |
| 2026-04-30 10:54 | 51.44817 | 20.38613 | 26570 ft | 430 kts | 198° |
| 2026-04-30 10:54 | 51.41926 | 20.37360 | 27011 ft | 433 kts | 198° |
| 2026-04-30 10:54 | 51.39006 | 20.36066 | 27415 ft | 435 kts | 201° |
| 2026-04-30 10:54 | 51.36115 | 20.34528 | 27818 ft | 438 kts | 201° |
| 2026-04-30 10:55 | 51.33195 | 20.32992 | 28239 ft | 441 kts | 201° |
| 2026-04-30 10:55 | 51.30295 | 20.31485 | 28651 ft | 444 kts | 201° |
| 2026-04-30 10:55 | 51.27338 | 20.29955 | 29032 ft | 448 kts | 201° |
| 2026-04-30 10:55 | 51.24354 | 20.28415 | 29410 ft | 451 kts | 201° |
| 2026-04-30 10:56 | 51.21355 | 20.26869 | 29802 ft | 454 kts | 202° |
| 2026-04-30 10:56 | 51.18336 | 20.25316 | 30187 ft | 456 kts | 202° |
| 2026-04-30 10:56 | 51.15303 | 20.23757 | 30531 ft | 460 kts | 202° |
| 2026-04-30 10:56 | 51.12279 | 20.22207 | 30820 ft | 462 kts | 202° |
| 2026-04-30 10:57 | 51.09199 | 20.20627 | 31149 ft | 464 kts | 202° |
| 2026-04-30 10:57 | 51.06111 | 20.19048 | 31454 ft | 466 kts | 202° |
| 2026-04-30 10:57 | 51.03014 | 20.17465 | 31746 ft | 468 kts | 202° |
| 2026-04-30 10:57 | 50.99901 | 20.15877 | 32028 ft | 471 kts | 202° |
| 2026-04-30 10:58 | 50.96806 | 20.14299 | 32317 ft | 473 kts | 202° |
| 2026-04-30 10:58 | 50.93655 | 20.12696 | 32616 ft | 475 kts | 202° |
| 2026-04-30 10:58 | 50.90494 | 20.11084 | 32888 ft | 478 kts | 202° |
| 2026-04-30 10:58 | 50.87314 | 20.09464 | 33156 ft | 480 kts | 202° |
| 2026-04-30 10:59 | 50.84120 | 20.07838 | 33434 ft | 482 kts | 202° |
| 2026-04-30 10:59 | 50.80951 | 20.06227 | 33704 ft | 484 kts | 202° |
| 2026-04-30 10:59 | 50.77735 | 20.04594 | 33993 ft | 486 kts | 202° |
| 2026-04-30 10:59 | 50.74513 | 20.02961 | 34348 ft | 486 kts | 202° |
| 2026-04-30 11:00 | 50.71279 | 20.01322 | 34637 ft | 487 kts | 202° |
| 2026-04-30 11:00 | 50.68042 | 19.99686 | 34915 ft | 487 kts | 202° |
| 2026-04-30 11:00 | 50.64855 | 19.98077 | 35236 ft | 486 kts | 202° |
| 2026-04-30 11:00 | 50.61630 | 19.96452 | 35501 ft | 487 kts | 202° |
| 2026-04-30 11:01 | 50.58399 | 19.94826 | 35788 ft | 486 kts | 202° |
| 2026-04-30 11:01 | 50.55174 | 19.93205 | 36102 ft | 486 kts | 202° |
| 2026-04-30 11:01 | 50.51953 | 19.91588 | 36389 ft | 485 kts | 201° |
| 2026-04-30 11:01 | 50.48730 | 19.89972 | 36692 ft | 485 kts | 201° |
| 2026-04-30 11:02 | 50.45514 | 19.88362 | 36980 ft | 485 kts | 201° |
| 2026-04-30 11:02 | 50.42335 | 19.86773 | 37262 ft | 484 kts | 201° |
| 2026-04-30 11:02 | 50.39126 | 19.85172 | 37546 ft | 484 kts | 201° |
| 2026-04-30 11:02 | 50.35915 | 19.83571 | 37827 ft | 483 kts | 201° |
| 2026-04-30 11:03 | 50.32707 | 19.81974 | 38112 ft | 482 kts | 201° |
| 2026-04-30 11:03 | 50.29501 | 19.80381 | 38376 ft | 482 kts | 201° |
| 2026-04-30 11:04 | 50.19968 | 19.75656 | 38449 ft | 479 kts | 201° |
| 2026-04-30 11:04 | 50.13609 | 19.72514 | 38454 ft | 478 kts | 201° |
| 2026-04-30 11:05 | 50.07293 | 19.69405 | 38441 ft | 478 kts | 201° |
| 2026-04-30 11:05 | 50.02023 | 19.66814 | 38452 ft | 477 kts | 201° |
| 2026-04-30 11:06 | 49.94644 | 19.63200 | 38441 ft | 476 kts | 201° |
| 2026-04-30 11:06 | 49.89373 | 19.60625 | 38432 ft | 476 kts | 201° |
| 2026-04-30 11:07 | 49.83047 | 19.57542 | 38420 ft | 475 kts | 201° |
| 2026-04-30 11:07 | 49.76733 | 19.54473 | 38414 ft | 475 kts | 201° |
| 2026-04-30 11:08 | 49.70463 | 19.51434 | 38405 ft | 474 kts | 201° |
| 2026-04-30 11:08 | 49.64154 | 19.48383 | 38403 ft | 473 kts | 201° |
| 2026-04-30 11:09 | 49.57941 | 19.45041 | 38403 ft | 472 kts | 204° |
| 2026-04-30 11:09 | 49.51798 | 19.41607 | 38402 ft | 472 kts | 204° |
| 2026-04-30 11:10 | 49.45613 | 19.38176 | 38394 ft | 471 kts | 204° |
| 2026-04-30 11:10 | 49.39432 | 19.34758 | 38391 ft | 472 kts | 204° |
| 2026-04-30 11:11 | 49.33277 | 19.31362 | 38383 ft | 472 kts | 204° |
| 2026-04-30 11:11 | 49.27073 | 19.27950 | 38380 ft | 473 kts | 204° |
| 2026-04-30 11:12 | 49.20880 | 19.24553 | 38385 ft | 473 kts | 204° |
| 2026-04-30 11:12 | 49.14754 | 19.21059 | 38364 ft | 470 kts | 208° |
| 2026-04-30 11:13 | 49.08739 | 19.17091 | 38366 ft | 471 kts | 207° |
| 2026-04-30 11:13 | 49.02689 | 19.13182 | 38365 ft | 472 kts | 207° |
| 2026-04-30 11:14 | 48.96672 | 19.09311 | 38381 ft | 471 kts | 207° |
| 2026-04-30 11:14 | 48.90619 | 19.05428 | 38369 ft | 472 kts | 207° |
| 2026-04-30 11:15 | 48.84562 | 19.01554 | 38367 ft | 471 kts | 207° |
| 2026-04-30 11:15 | 48.78500 | 18.97685 | 38363 ft | 472 kts | 207° |
| 2026-04-30 11:16 | 48.72437 | 18.93827 | 38365 ft | 472 kts | 207° |
| 2026-04-30 11:16 | 48.66411 | 18.90001 | 38366 ft | 472 kts | 207° |
| 2026-04-30 11:17 | 48.60348 | 18.86162 | 38366 ft | 472 kts | 207° |
| 2026-04-30 11:17 | 48.54273 | 18.82326 | 38376 ft | 472 kts | 207° |
| 2026-04-30 11:18 | 48.48246 | 18.78530 | 38377 ft | 472 kts | 207° |
| 2026-04-30 11:18 | 48.39147 | 18.72818 | 38392 ft | 472 kts | 207° |
| 2026-04-30 11:19 | 48.33121 | 18.69047 | 38389 ft | 472 kts | 207° |
| 2026-04-30 11:19 | 48.27047 | 18.65256 | 38389 ft | 471 kts | 207° |
| 2026-04-30 11:20 | 48.21013 | 18.61499 | 38386 ft | 471 kts | 207° |
| 2026-04-30 11:20 | 48.14956 | 18.57738 | 38384 ft | 471 kts | 206° |
| 2026-04-30 11:21 | 48.08899 | 18.53987 | 38392 ft | 471 kts | 206° |
| 2026-04-30 11:21 | 48.02821 | 18.50231 | 38387 ft | 471 kts | 206° |
| 2026-04-30 11:22 | 47.96805 | 18.46524 | 38390 ft | 470 kts | 206° |
| 2026-04-30 11:22 | 47.90745 | 18.42800 | 38394 ft | 470 kts | 206° |
| 2026-04-30 11:23 | 47.84702 | 18.39094 | 38391 ft | 469 kts | 206° |
| 2026-04-30 11:24 | 47.75679 | 18.33580 | 38393 ft | 468 kts | 206° |
| 2026-04-30 11:24 | 47.69640 | 18.29900 | 38394 ft | 467 kts | 206° |
| 2026-04-30 11:25 | 47.60652 | 18.24437 | 38388 ft | 468 kts | 203° |
| 2026-04-30 11:26 | 47.48392 | 18.17027 | 38411 ft | 480 kts | 203° |
| 2026-04-30 11:26 | 47.42228 | 18.13314 | 38400 ft | 480 kts | 203° |
| 2026-04-30 11:27 | 47.36040 | 18.09596 | 38397 ft | 479 kts | 203° |
| 2026-04-30 11:27 | 47.29883 | 18.05906 | 38395 ft | 479 kts | 203° |
| 2026-04-30 11:28 | 47.20624 | 18.00374 | 38382 ft | 478 kts | 203° |
| 2026-04-30 11:29 | 47.14490 | 17.96720 | 38382 ft | 477 kts | 203° |
| 2026-04-30 11:29 | 47.05285 | 17.91255 | 38388 ft | 476 kts | 203° |
| 2026-04-30 11:30 | 46.96062 | 17.85800 | 38390 ft | 475 kts | 203° |
| 2026-04-30 11:31 | 46.89961 | 17.82201 | 38386 ft | 475 kts | 203° |
| 2026-04-30 11:31 | 46.83827 | 17.78594 | 38383 ft | 474 kts | 203° |
| 2026-04-30 11:32 | 46.77700 | 17.74998 | 38389 ft | 474 kts | 203° |
| 2026-04-30 11:32 | 46.71595 | 17.71425 | 38387 ft | 474 kts | 203° |
| 2026-04-30 11:33 | 46.62402 | 17.66060 | 38389 ft | 473 kts | 204° |
| 2026-04-30 11:33 | 46.56322 | 17.62523 | 38389 ft | 473 kts | 204° |
| 2026-04-30 11:34 | 46.50205 | 17.58973 | 38384 ft | 472 kts | 204° |
| 2026-04-30 11:34 | 46.44105 | 17.55441 | 38385 ft | 472 kts | 204° |
| 2026-04-30 11:35 | 46.38029 | 17.51931 | 38381 ft | 472 kts | 204° |
| 2026-04-30 11:35 | 46.31911 | 17.48407 | 38380 ft | 471 kts | 204° |
| 2026-04-30 11:36 | 46.25840 | 17.44915 | 38381 ft | 471 kts | 204° |
| 2026-04-30 11:36 | 46.19738 | 17.41415 | 38380 ft | 471 kts | 204° |
| 2026-04-30 11:37 | 46.13685 | 17.37950 | 38378 ft | 470 kts | 204° |
| 2026-04-30 11:37 | 46.07586 | 17.34468 | 38378 ft | 470 kts | 204° |
| 2026-04-30 11:38 | 46.01492 | 17.30996 | 38382 ft | 470 kts | 204° |
| 2026-04-30 11:38 | 45.95538 | 17.27266 | 38382 ft | 470 kts | 207° |
| 2026-04-30 11:39 | 45.89561 | 17.23447 | 38372 ft | 470 kts | 207° |
| 2026-04-30 11:39 | 45.83572 | 17.19642 | 38373 ft | 470 kts | 207° |
| 2026-04-30 11:40 | 45.77600 | 17.15855 | 38366 ft | 470 kts | 207° |
| 2026-04-30 11:40 | 45.71597 | 17.12058 | 38370 ft | 471 kts | 207° |
| 2026-04-30 11:41 | 45.65634 | 17.08295 | 38367 ft | 471 kts | 207° |
| 2026-04-30 11:41 | 45.59618 | 17.04508 | 38369 ft | 471 kts | 207° |
| 2026-04-30 11:42 | 45.53617 | 17.00739 | 38360 ft | 471 kts | 207° |
| 2026-04-30 11:42 | 45.47652 | 16.97002 | 38367 ft | 471 kts | 207° |
| 2026-04-30 11:43 | 45.41651 | 16.93251 | 38364 ft | 470 kts | 207° |
| 2026-04-30 11:43 | 45.35639 | 16.89501 | 38361 ft | 470 kts | 207° |
| 2026-04-30 11:44 | 45.29663 | 16.85783 | 38361 ft | 470 kts | 207° |
| 2026-04-30 11:44 | 45.23667 | 16.82060 | 38355 ft | 470 kts | 207° |
| 2026-04-30 11:45 | 45.17679 | 16.78351 | 38357 ft | 470 kts | 207° |
| 2026-04-30 11:45 | 45.11705 | 16.74660 | 38352 ft | 470 kts | 207° |
| 2026-04-30 11:46 | 45.05697 | 16.70955 | 38350 ft | 470 kts | 207° |
| 2026-04-30 11:46 | 44.99731 | 16.67286 | 38342 ft | 470 kts | 207° |
| 2026-04-30 11:47 | 44.93723 | 16.63599 | 38342 ft | 469 kts | 207° |
| 2026-04-30 11:47 | 44.87725 | 16.59927 | 38341 ft | 469 kts | 207° |
| 2026-04-30 11:48 | 44.81777 | 16.56292 | 38335 ft | 468 kts | 207° |
| 2026-04-30 11:48 | 44.75787 | 16.52641 | 38326 ft | 468 kts | 207° |
| 2026-04-30 11:49 | 44.69842 | 16.49025 | 38319 ft | 467 kts | 207° |
| 2026-04-30 11:49 | 44.63870 | 16.45403 | 38314 ft | 467 kts | 207° |
| 2026-04-30 11:50 | 44.57888 | 16.41780 | 38303 ft | 466 kts | 207° |
| 2026-04-30 11:50 | 44.51964 | 16.38201 | 38294 ft | 466 kts | 207° |
| 2026-04-30 11:51 | 44.45994 | 16.34604 | 38281 ft | 465 kts | 207° |
| 2026-04-30 11:51 | 44.40042 | 16.31024 | 38278 ft | 465 kts | 207° |
| 2026-04-30 11:52 | 44.34146 | 16.27486 | 38279 ft | 464 kts | 207° |
| 2026-04-30 11:52 | 44.28207 | 16.23930 | 38243 ft | 462 kts | 207° |
| 2026-04-30 11:53 | 44.22280 | 16.20390 | 38228 ft | 462 kts | 207° |
| 2026-04-30 11:53 | 44.16401 | 16.16885 | 38228 ft | 461 kts | 207° |
| 2026-04-30 11:54 | 44.11497 | 16.13968 | 38216 ft | 460 kts | 207° |
| 2026-04-30 11:54 | 44.04634 | 16.09894 | 38430 ft | 460 kts | 207° |
| 2026-04-30 11:55 | 44.01685 | 16.08146 | 38564 ft | 460 kts | 207° |
| 2026-04-30 11:55 | 43.99728 | 16.06987 | 38651 ft | 460 kts | 207° |
| 2026-04-30 11:55 | 43.96774 | 16.05241 | 38775 ft | 460 kts | 207° |
| 2026-04-30 11:55 | 43.93832 | 16.03502 | 38893 ft | 460 kts | 207° |
| 2026-04-30 11:56 | 43.90889 | 16.01765 | 39000 ft | 459 kts | 207° |
| 2026-04-30 11:56 | 43.87947 | 16.00030 | 39097 ft | 459 kts | 207° |
| 2026-04-30 11:56 | 43.82048 | 15.96559 | 39169 ft | 458 kts | 207° |
| 2026-04-30 11:57 | 43.76219 | 15.93134 | 39164 ft | 458 kts | 207° |
| 2026-04-30 11:57 | 43.70357 | 15.89698 | 39166 ft | 457 kts | 207° |
| 2026-04-30 11:58 | 43.64487 | 15.86265 | 39163 ft | 457 kts | 207° |
| 2026-04-30 11:58 | 43.58664 | 15.82867 | 39161 ft | 456 kts | 207° |
| 2026-04-30 11:59 | 43.52791 | 15.79446 | 39163 ft | 456 kts | 207° |
| 2026-04-30 11:59 | 43.46976 | 15.76067 | 39162 ft | 455 kts | 207° |
| 2026-04-30 12:00 | 43.41159 | 15.72693 | 39162 ft | 455 kts | 207° |
| 2026-04-30 12:00 | 43.35311 | 15.69309 | 39166 ft | 455 kts | 208° |
| 2026-04-30 12:01 | 43.29474 | 15.65938 | 39174 ft | 454 kts | 208° |
| 2026-04-30 12:01 | 43.23675 | 15.62596 | 39172 ft | 454 kts | 208° |
| 2026-04-30 12:02 | 43.17842 | 15.59240 | 39173 ft | 454 kts | 208° |
| 2026-04-30 12:02 | 43.12019 | 15.55897 | 39173 ft | 453 kts | 208° |
| 2026-04-30 12:03 | 43.03306 | 15.50907 | 39181 ft | 453 kts | 208° |
| 2026-04-30 12:04 | 42.97485 | 15.47582 | 39177 ft | 453 kts | 208° |
| 2026-04-30 12:04 | 42.91685 | 15.44278 | 39177 ft | 453 kts | 207° |
| 2026-04-30 12:05 | 42.85820 | 15.41055 | 39184 ft | 453 kts | 207° |
| 2026-04-30 12:05 | 42.79964 | 15.37831 | 39178 ft | 453 kts | 207° |
| 2026-04-30 12:06 | 42.74116 | 15.34618 | 39177 ft | 453 kts | 207° |
| 2026-04-30 12:06 | 42.68294 | 15.31425 | 39182 ft | 453 kts | 208° |
| 2026-04-30 12:07 | 42.62434 | 15.28217 | 39176 ft | 452 kts | 208° |
| 2026-04-30 12:07 | 42.56630 | 15.25046 | 39183 ft | 452 kts | 208° |
| 2026-04-30 12:08 | 42.50783 | 15.21859 | 39179 ft | 451 kts | 208° |
| 2026-04-30 12:08 | 42.44987 | 15.18705 | 39179 ft | 451 kts | 208° |
| 2026-04-30 12:09 | 42.39161 | 15.15543 | 39180 ft | 450 kts | 208° |
| 2026-04-30 12:09 | 42.33365 | 15.12402 | 39177 ft | 450 kts | 208° |
| 2026-04-30 12:10 | 42.27541 | 15.09252 | 39183 ft | 450 kts | 208° |
| 2026-04-30 12:10 | 42.21718 | 15.06110 | 39184 ft | 450 kts | 208° |
| 2026-04-30 12:11 | 42.15896 | 15.02974 | 39183 ft | 450 kts | 208° |
| 2026-04-30 12:11 | 42.10112 | 14.99864 | 39186 ft | 450 kts | 208° |
| 2026-04-30 12:12 | 42.04297 | 14.96745 | 39188 ft | 450 kts | 208° |
| 2026-04-30 12:12 | 41.98467 | 14.93623 | 39181 ft | 450 kts | 208° |
| 2026-04-30 12:13 | 41.92667 | 14.90523 | 39190 ft | 450 kts | 208° |
| 2026-04-30 12:13 | 41.86832 | 14.87411 | 39185 ft | 450 kts | 208° |
| 2026-04-30 12:14 | 41.81036 | 14.84326 | 39196 ft | 451 kts | 208° |
| 2026-04-30 12:14 | 41.75207 | 14.81229 | 39184 ft | 450 kts | 208° |
| 2026-04-30 12:15 | 41.69373 | 14.78136 | 39177 ft | 451 kts | 208° |
| 2026-04-30 12:15 | 41.63556 | 14.75060 | 39175 ft | 451 kts | 208° |
| 2026-04-30 12:16 | 41.57703 | 14.71966 | 39171 ft | 452 kts | 208° |
| 2026-04-30 12:16 | 41.51876 | 14.68895 | 39167 ft | 452 kts | 208° |
| 2026-04-30 12:17 | 41.43087 | 14.64273 | 39158 ft | 452 kts | 208° |
| 2026-04-30 12:17 | 41.37225 | 14.61198 | 39157 ft | 452 kts | 208° |
| 2026-04-30 12:18 | 41.31392 | 14.58144 | 39149 ft | 452 kts | 208° |
| 2026-04-30 12:18 | 41.25535 | 14.55084 | 39139 ft | 451 kts | 208° |
| 2026-04-30 12:19 | 41.19725 | 14.52053 | 39131 ft | 451 kts | 208° |
| 2026-04-30 12:19 | 41.13880 | 14.49011 | 39119 ft | 450 kts | 208° |
| 2026-04-30 12:20 | 41.08030 | 14.45971 | 39111 ft | 450 kts | 208° |
| 2026-04-30 12:20 | 41.02229 | 14.42963 | 39101 ft | 450 kts | 208° |
| 2026-04-30 12:21 | 40.96392 | 14.39942 | 39101 ft | 449 kts | 208° |
| 2026-04-30 12:21 | 40.90568 | 14.36934 | 39100 ft | 449 kts | 208° |
| 2026-04-30 12:22 | 40.84785 | 14.33952 | 39098 ft | 449 kts | 208° |
| 2026-04-30 12:22 | 40.78970 | 14.30959 | 39099 ft | 448 kts | 208° |
| 2026-04-30 12:23 | 40.73151 | 14.27970 | 39098 ft | 448 kts | 208° |
| 2026-04-30 12:23 | 40.67335 | 14.24988 | 39100 ft | 448 kts | 208° |
| 2026-04-30 12:24 | 40.61546 | 14.22026 | 39101 ft | 448 kts | 208° |
| 2026-04-30 12:24 | 40.55717 | 14.19048 | 39096 ft | 448 kts | 208° |
| 2026-04-30 12:25 | 40.49916 | 14.16091 | 39095 ft | 449 kts | 208° |
| 2026-04-30 12:25 | 40.44082 | 14.13122 | 39095 ft | 449 kts | 208° |
| 2026-04-30 12:26 | 40.38286 | 14.10178 | 39092 ft | 448 kts | 208° |
| 2026-04-30 12:26 | 40.32455 | 14.07222 | 39091 ft | 448 kts | 208° |
| 2026-04-30 12:27 | 40.26629 | 14.04273 | 39090 ft | 448 kts | 208° |
| 2026-04-30 12:27 | 40.20795 | 14.01326 | 39093 ft | 449 kts | 208° |
| 2026-04-30 12:28 | 40.14996 | 13.98402 | 39090 ft | 449 kts | 208° |
| 2026-04-30 12:28 | 40.09168 | 13.95469 | 39095 ft | 449 kts | 208° |
| 2026-04-30 12:29 | 40.03336 | 13.92539 | 39092 ft | 449 kts | 208° |
| 2026-04-30 12:29 | 39.97487 | 13.89607 | 39091 ft | 449 kts | 208° |
| 2026-04-30 12:30 | 39.91675 | 13.86698 | 39087 ft | 450 kts | 208° |
| 2026-04-30 12:30 | 39.85805 | 13.83766 | 39088 ft | 450 kts | 208° |
| 2026-04-30 12:31 | 39.79989 | 13.80865 | 39086 ft | 450 kts | 208° |
| 2026-04-30 12:31 | 39.74119 | 13.77943 | 39087 ft | 450 kts | 208° |
| 2026-04-30 12:32 | 39.68293 | 13.75048 | 39086 ft | 451 kts | 208° |
| 2026-04-30 12:32 | 39.62423 | 13.72137 | 39087 ft | 451 kts | 208° |
| 2026-04-30 12:33 | 39.56550 | 13.69230 | 39081 ft | 451 kts | 208° |
| 2026-04-30 12:33 | 39.50669 | 13.66324 | 39082 ft | 451 kts | 208° |
| 2026-04-30 12:34 | 39.44832 | 13.63444 | 39081 ft | 452 kts | 208° |
| 2026-04-30 12:34 | 39.38941 | 13.60544 | 39079 ft | 452 kts | 208° |
| 2026-04-30 12:35 | 39.33097 | 13.57672 | 39080 ft | 452 kts | 208° |
| 2026-04-30 12:35 | 39.27208 | 13.54783 | 39074 ft | 452 kts | 208° |
| 2026-04-30 12:36 | 39.21318 | 13.51898 | 39078 ft | 452 kts | 208° |
| 2026-04-30 12:36 | 39.15434 | 13.49022 | 39071 ft | 452 kts | 208° |
| 2026-04-30 12:37 | 39.09581 | 13.46166 | 39076 ft | 452 kts | 208° |
| 2026-04-30 12:37 | 39.03694 | 13.43298 | 39079 ft | 452 kts | 208° |
| 2026-04-30 12:38 | 38.97930 | 13.40495 | 39075 ft | 452 kts | 208° |
| 2026-04-30 12:38 | 38.91984 | 13.37610 | 39072 ft | 452 kts | 208° |
| 2026-04-30 12:39 | 38.86078 | 13.34748 | 39071 ft | 452 kts | 208° |
| 2026-04-30 12:39 | 38.80181 | 13.31895 | 39073 ft | 452 kts | 208° |
| 2026-04-30 12:40 | 38.74315 | 13.29064 | 39069 ft | 452 kts | 208° |
| 2026-04-30 12:40 | 38.68410 | 13.26218 | 39065 ft | 452 kts | 208° |
| 2026-04-30 12:41 | 38.62522 | 13.23385 | 39069 ft | 452 kts | 208° |
| 2026-04-30 12:41 | 38.56645 | 13.20563 | 39068 ft | 452 kts | 208° |
| 2026-04-30 12:42 | 38.50741 | 13.17732 | 39061 ft | 452 kts | 207° |
| 2026-04-30 12:42 | 38.44879 | 13.14927 | 39063 ft | 451 kts | 207° |
| 2026-04-30 12:43 | 38.39985 | 13.12588 | 39055 ft | 451 kts | 207° |
| 2026-04-30 12:43 | 38.33137 | 13.09322 | 39048 ft | 451 kts | 207° |
| 2026-04-30 12:44 | 38.28248 | 13.06994 | 39046 ft | 450 kts | 207° |
| 2026-04-30 12:44 | 38.22378 | 13.04204 | 39043 ft | 450 kts | 207° |
| 2026-04-30 12:45 | 38.16495 | 13.01412 | 39047 ft | 450 kts | 208° |
| 2026-04-30 12:45 | 38.10631 | 12.98633 | 39044 ft | 449 kts | 207° |
| 2026-04-30 12:46 | 38.04809 | 12.95880 | 39047 ft | 449 kts | 207° |
| 2026-04-30 12:46 | 37.98955 | 12.93116 | 39043 ft | 448 kts | 208° |
| 2026-04-30 12:47 | 37.93115 | 12.90364 | 39046 ft | 447 kts | 207° |
| 2026-04-30 12:47 | 37.87294 | 12.87625 | 39050 ft | 446 kts | 207° |
| 2026-04-30 12:48 | 37.81470 | 12.84889 | 39053 ft | 446 kts | 207° |
| 2026-04-30 12:48 | 37.75676 | 12.82172 | 39051 ft | 446 kts | 207° |
| 2026-04-30 12:49 | 37.69855 | 12.79445 | 39047 ft | 445 kts | 208° |
| 2026-04-30 12:49 | 37.64032 | 12.76723 | 39041 ft | 445 kts | 207° |
| 2026-04-30 12:50 | 37.58256 | 12.74027 | 39040 ft | 444 kts | 207° |
| 2026-04-30 12:50 | 37.52486 | 12.71338 | 39041 ft | 443 kts | 208° |
| 2026-04-30 12:51 | 37.46686 | 12.68640 | 39037 ft | 443 kts | 208° |
| 2026-04-30 12:51 | 37.40930 | 12.65966 | 39039 ft | 443 kts | 208° |
| 2026-04-30 12:52 | 37.35145 | 12.63283 | 39035 ft | 442 kts | 208° |
| 2026-04-30 12:52 | 37.29358 | 12.60604 | 39035 ft | 442 kts | 208° |
| 2026-04-30 12:53 | 37.23622 | 12.57953 | 39034 ft | 442 kts | 208° |
| 2026-04-30 12:53 | 37.17843 | 12.55298 | 39035 ft | 443 kts | 206° |
| 2026-04-30 12:54 | 37.11962 | 12.52920 | 39028 ft | 444 kts | 206° |
| 2026-04-30 12:54 | 37.07237 | 12.50987 | 39034 ft | 443 kts | 206° |
| 2026-04-30 12:55 | 37.01353 | 12.48578 | 39031 ft | 443 kts | 206° |
| 2026-04-30 12:55 | 36.95495 | 12.46182 | 38838 ft | 442 kts | 206° |
| 2026-04-30 12:56 | 36.92604 | 12.45001 | 38726 ft | 442 kts | 206° |
| 2026-04-30 12:56 | 36.89677 | 12.43806 | 38592 ft | 442 kts | 206° |
| 2026-04-30 12:56 | 36.86748 | 12.42612 | 38449 ft | 442 kts | 206° |
| 2026-04-30 12:56 | 36.83822 | 12.41420 | 38306 ft | 442 kts | 206° |
| 2026-04-30 12:57 | 36.80883 | 12.40223 | 38166 ft | 442 kts | 206° |
| 2026-04-30 12:57 | 36.77991 | 12.39046 | 38038 ft | 442 kts | 205° |
| 2026-04-30 12:57 | 36.72110 | 12.36656 | 38027 ft | 443 kts | 205° |
| 2026-04-30 12:58 | 36.66270 | 12.34287 | 38029 ft | 443 kts | 206° |
| 2026-04-30 12:58 | 36.60402 | 12.31911 | 38034 ft | 443 kts | 205° |
| 2026-04-30 12:59 | 36.54560 | 12.29548 | 38028 ft | 443 kts | 205° |
| 2026-04-30 12:59 | 36.48690 | 12.27178 | 38030 ft | 443 kts | 205° |
| 2026-04-30 13:00 | 36.42819 | 12.24812 | 38027 ft | 443 kts | 206° |
| 2026-04-30 13:00 | 36.37002 | 12.22470 | 38024 ft | 442 kts | 205° |
| 2026-04-30 13:01 | 36.31154 | 12.20121 | 38026 ft | 441 kts | 205° |
| 2026-04-30 13:01 | 36.25307 | 12.17775 | 38022 ft | 441 kts | 205° |
| 2026-04-30 13:02 | 36.19460 | 12.15432 | 38020 ft | 441 kts | 205° |
| 2026-04-30 13:02 | 36.13647 | 12.13107 | 38018 ft | 441 kts | 205° |
| 2026-04-30 13:03 | 36.07807 | 12.10776 | 38022 ft | 440 kts | 205° |
| 2026-04-30 13:03 | 36.01964 | 12.08446 | 38019 ft | 440 kts | 205° |
| 2026-04-30 13:04 | 35.96175 | 12.06141 | 38019 ft | 440 kts | 205° |
| 2026-04-30 13:04 | 35.90361 | 12.03831 | 38015 ft | 439 kts | 205° |
| 2026-04-30 13:05 | 35.84533 | 12.01518 | 38017 ft | 439 kts | 205° |
| 2026-04-30 13:06 | 35.75799 | 11.98059 | 38015 ft | 438 kts | 205° |
| 2026-04-30 13:06 | 35.70013 | 11.95771 | 38011 ft | 438 kts | 205° |
| 2026-04-30 13:07 | 35.64238 | 11.93491 | 37999 ft | 438 kts | 205° |
| 2026-04-30 13:07 | 35.61339 | 11.92349 | 37572 ft | 436 kts | 205° |
| 2026-04-30 13:07 | 35.58457 | 11.91214 | 36983 ft | 433 kts | 205° |
| 2026-04-30 13:07 | 35.55592 | 11.90086 | 36434 ft | 430 kts | 205° |
| 2026-04-30 13:08 | 35.52748 | 11.88967 | 35956 ft | 426 kts | 204° |
| 2026-04-30 13:08 | 35.49928 | 11.87859 | 35470 ft | 423 kts | 204° |
| 2026-04-30 13:08 | 35.47165 | 11.86774 | 34983 ft | 420 kts | 204° |
| 2026-04-30 13:08 | 35.44387 | 11.85684 | 34498 ft | 417 kts | 204° |
| 2026-04-30 13:09 | 35.41626 | 11.84600 | 34010 ft | 414 kts | 204° |
| 2026-04-30 13:09 | 35.38921 | 11.83540 | 33467 ft | 412 kts | 204° |
| 2026-04-30 13:09 | 35.36203 | 11.82475 | 33061 ft | 405 kts | 204° |
| 2026-04-30 13:09 | 35.33559 | 11.81441 | 32961 ft | 392 kts | 204° |
| 2026-04-30 13:10 | 35.30974 | 11.80428 | 32853 ft | 392 kts | 204° |
| 2026-04-30 13:10 | 35.28348 | 11.79402 | 32701 ft | 398 kts | 204° |
| 2026-04-30 13:10 | 35.25693 | 11.78365 | 32561 ft | 401 kts | 204° |
| 2026-04-30 13:10 | 35.23025 | 11.77324 | 32430 ft | 402 kts | 204° |
| 2026-04-30 13:11 | 35.20359 | 11.76284 | 32299 ft | 401 kts | 204° |
| 2026-04-30 13:11 | 35.17730 | 11.75259 | 32171 ft | 401 kts | 204° |
| 2026-04-30 13:11 | 35.15072 | 11.74224 | 32045 ft | 400 kts | 204° |
| 2026-04-30 13:11 | 35.12421 | 11.73192 | 31919 ft | 399 kts | 204° |
| 2026-04-30 13:12 | 35.09774 | 11.72162 | 31762 ft | 399 kts | 204° |
| 2026-04-30 13:12 | 35.07126 | 11.71133 | 31389 ft | 397 kts | 204° |
| 2026-04-30 13:12 | 35.04499 | 11.70113 | 30892 ft | 395 kts | 204° |
| 2026-04-30 13:13 | 34.99290 | 11.68091 | 29921 ft | 391 kts | 203° |
| 2026-04-30 13:13 | 34.96693 | 11.67084 | 29403 ft | 389 kts | 203° |
| 2026-04-30 13:13 | 34.91620 | 11.65120 | 28516 ft | 380 kts | 203° |
| 2026-04-30 13:14 | 34.89104 | 11.64146 | 28081 ft | 377 kts | 203° |
| 2026-04-30 13:14 | 34.86607 | 11.63181 | 27643 ft | 373 kts | 203° |
| 2026-04-30 13:14 | 34.81720 | 11.61292 | 26792 ft | 367 kts | 203° |
| 2026-04-30 13:15 | 34.79286 | 11.60353 | 26368 ft | 365 kts | 203° |
| 2026-04-30 13:15 | 34.74426 | 11.58479 | 25522 ft | 365 kts | 203° |
| 2026-04-30 13:15 | 34.72040 | 11.57559 | 25102 ft | 364 kts | 203° |
| 2026-04-30 13:16 | 34.69600 | 11.56619 | 24687 ft | 363 kts | 203° |
| 2026-04-30 13:16 | 34.67201 | 11.55696 | 24270 ft | 361 kts | 203° |
| 2026-04-30 13:16 | 34.64837 | 11.54787 | 23860 ft | 359 kts | 202° |
| 2026-04-30 13:17 | 34.60087 | 11.52961 | 22944 ft | 355 kts | 202° |
| 2026-04-30 13:17 | 34.57744 | 11.52062 | 22523 ft | 352 kts | 202° |
| 2026-04-30 13:17 | 34.53892 | 11.50576 | 21842 ft | 345 kts | 204° |
| 2026-04-30 13:18 | 34.51267 | 11.48595 | 21268 ft | 331 kts | 227° |
| 2026-04-30 13:18 | 34.47879 | 11.44892 | 20503 ft | 327 kts | 226° |
| 2026-04-30 13:18 | 34.46191 | 11.43024 | 20133 ft | 328 kts | 226° |
| 2026-04-30 13:19 | 34.44504 | 11.41144 | 19605 ft | 333 kts | 226° |
| 2026-04-30 13:19 | 34.42774 | 11.39207 | 18926 ft | 341 kts | 226° |
| 2026-04-30 13:19 | 34.41045 | 11.37269 | 18436 ft | 342 kts | 226° |
| 2026-04-30 13:19 | 34.39290 | 11.35300 | 17935 ft | 341 kts | 225° |
| 2026-04-30 13:20 | 34.37552 | 11.33350 | 17492 ft | 338 kts | 226° |
| 2026-04-30 13:20 | 34.35856 | 11.31427 | 17021 ft | 336 kts | 226° |
| 2026-04-30 13:20 | 34.34162 | 11.29498 | 16606 ft | 333 kts | 226° |
| 2026-04-30 13:20 | 34.32483 | 11.27588 | 16210 ft | 329 kts | 226° |
| 2026-04-30 13:21 | 34.30822 | 11.25700 | 15801 ft | 325 kts | 226° |
| 2026-04-30 13:21 | 34.29173 | 11.23827 | 15411 ft | 322 kts | 226° |
| 2026-04-30 13:21 | 34.27544 | 11.21978 | 15015 ft | 320 kts | 226° |
| 2026-04-30 13:22 | 34.24345 | 11.18352 | 14229 ft | 315 kts | 226° |
| 2026-04-30 13:22 | 34.22740 | 11.16541 | 13779 ft | 314 kts | 226° |
| 2026-04-30 13:22 | 34.19565 | 11.12961 | 12949 ft | 309 kts | 226° |
| 2026-04-30 13:23 | 34.18003 | 11.11199 | 12557 ft | 305 kts | 226° |
| 2026-04-30 13:23 | 34.14945 | 11.07747 | 11830 ft | 298 kts | 226° |
| 2026-04-30 13:24 | 34.11943 | 11.04359 | 11108 ft | 292 kts | 226° |
| 2026-04-30 13:24 | 34.08988 | 11.01030 | 10371 ft | 289 kts | 226° |
| 2026-04-30 13:25 | 34.07233 | 10.97020 | 9721 ft | 271 kts | 267° |
| 2026-04-30 13:25 | 34.05611 | 10.93141 | 9091 ft | 272 kts | 216° |
| 2026-04-30 13:26 | 34.03173 | 10.87905 | 8135 ft | 259 kts | 293° |
| 2026-04-30 13:26 | 34.05183 | 10.84302 | 7587 ft | 262 kts | 294° |
| 2026-04-30 13:27 | 34.05935 | 10.80031 | 6971 ft | 264 kts | 276° |
| 2026-04-30 13:28 | 34.05767 | 10.73405 | 5944 ft | 263 kts | 261° |
| 2026-04-30 13:28 | 34.04798 | 10.69204 | 5271 ft | 262 kts | 250° |
| 2026-04-30 13:28 | 34.04060 | 10.67201 | 4931 ft | 261 kts | 244° |
| 2026-04-30 13:29 | 34.02104 | 10.63499 | 4250 ft | 262 kts | 233° |
| 2026-04-30 13:29 | 33.99647 | 10.60402 | 3855 ft | 249 kts | 222° |
| 2026-04-30 13:30 | 33.95439 | 10.57126 | 3160 ft | 236 kts | 206° |
| 2026-04-30 13:31 | 33.92382 | 10.55794 | 2655 ft | 230 kts | 195° |
| 2026-04-30 13:31 | 33.88158 | 10.56156 | 2489 ft | 194 kts | 129° |
| 2026-04-30 13:32 | 33.87255 | 10.59082 | 2506 ft | 186 kts | 97° |
| 2026-04-30 13:32 | 33.87144 | 10.61659 | 2301 ft | 185 kts | 87° |
| 2026-04-30 13:33 | 33.87216 | 10.64716 | 1856 ft | 182 kts | 86° |
| 2026-04-30 13:33 | 33.87290 | 10.67635 | 1415 ft | 156 kts | 86° |
| 2026-04-30 13:34 | 33.87321 | 10.68871 | 1219 ft | 146 kts | 86° |
| 2026-04-30 13:34 | 33.87411 | 10.72457 | 645 ft | 139 kts | 86° |
| 2026-04-30 13:35 | 33.87440 | 10.73605 | 460 ft | 137 kts | 85° |
| 2026-04-30 13:35 | 33.87497 | 10.75906 | 80 ft | 135 kts | 86° |
| 2026-04-30 13:36 | 33.87541 | 10.77575 | 25 ft | 50 kts | 88° |
| 2026-04-30 13:36 | 33.87500 | 10.77721 | 24 ft | 9 kts | 167° |
| 2026-04-30 13:36 | 33.87459 | 10.77724 | 26 ft | 0 kts | 176° |
| 2026-04-30 13:37 | 33.87439 | 10.77725 | 28 ft | 8 kts | 180° |
| 2026-04-30 13:37 | 33.87380 | 10.77449 | 29 ft | 23 kts | 268° |
| 2026-04-30 13:38 | 33.87310 | 10.77292 | 29 ft | 4 kts | 150° |
| 2026-04-30 13:38 | 33.87290 | 10.77323 | 29 ft | 8 kts | 127° |
| 2026-04-30 13:38 | 33.87239 | 10.77390 | 29 ft | 0 kts | 133° |